createdAt,value
2023-12-18T00:01:40.979Z,2.40
2023-12-18T00:04:09.367Z,2.40
2023-12-18T00:06:37.549Z,2.40
2023-12-18T00:09:07.032Z,2.40
2023-12-18T00:11:35.125Z,2.40
2023-12-18T00:14:04.084Z,2.40
2023-12-18T00:16:32.418Z,2.40
2023-12-18T00:19:00.843Z,2.40
2023-12-18T00:21:29.049Z,2.40
2023-12-18T00:23:57.206Z,2.40
2023-12-18T00:26:26.633Z,2.40
2023-12-18T00:28:54.599Z,2.40
2023-12-18T00:31:22.694Z,2.40
2023-12-18T00:33:50.999Z,2.30
2023-12-18T00:36:19.342Z,2.40
2023-12-18T00:38:47.352Z,2.40
2023-12-18T00:41:15.365Z,2.40
2023-12-18T00:43:44.861Z,2.40
2023-12-18T00:46:13.089Z,2.30
2023-12-18T00:48:41.273Z,2.40
2023-12-18T00:51:12.009Z,2.30
2023-12-18T00:53:40.083Z,2.40
2023-12-18T00:56:08.650Z,2.40
2023-12-18T00:58:36.692Z,2.30
2023-12-18T01:01:06.230Z,2.40
2023-12-18T01:03:34.409Z,2.30
2023-12-18T01:06:03.618Z,2.30
2023-12-18T01:08:31.860Z,2.30
2023-12-18T01:11:00.067Z,2.30
2023-12-18T01:13:28.222Z,2.20
2023-12-18T01:15:57.408Z,2.10
2023-12-18T01:18:27.236Z,2.10
2023-12-18T01:20:55.948Z,2.10
2023-12-18T01:23:23.978Z,2.10
2023-12-18T01:25:51.987Z,2.10
2023-12-18T01:28:20.016Z,2.10
2023-12-18T01:30:48.084Z,2.10
2023-12-18T01:33:16.295Z,2.20
2023-12-18T01:35:45.668Z,2.20
2023-12-18T01:38:13.792Z,2.20
2023-12-18T01:40:42.049Z,2.20
2023-12-18T01:43:26.192Z,2.20
2023-12-18T01:45:58.571Z,2.30
2023-12-18T01:48:27.847Z,2.30
2023-12-18T01:50:58.830Z,2.30
2023-12-18T01:53:29.622Z,2.30
2023-12-18T01:55:58.942Z,2.30
2023-12-18T01:58:27.493Z,2.40
2023-12-18T02:00:55.791Z,2.40
2023-12-18T02:03:25.816Z,2.30
2023-12-18T02:05:54.931Z,2.30
2023-12-18T02:08:26.067Z,2.30
2023-12-18T02:10:54.864Z,2.30
2023-12-18T02:13:22.843Z,2.30
2023-12-18T02:15:51.019Z,2.30
2023-12-18T02:18:19.306Z,2.30
2023-12-18T02:20:47.475Z,2.30
2023-12-18T02:23:16.962Z,2.30
2023-12-18T02:25:44.925Z,2.30
2023-12-18T02:28:13.785Z,2.30
2023-12-18T02:30:42.042Z,2.30
2023-12-18T02:33:10.258Z,2.30
2023-12-18T02:35:38.354Z,2.30
2023-12-18T02:38:06.674Z,2.30
2023-12-18T02:40:36.815Z,2.30
2023-12-18T02:43:05.448Z,2.30
2023-12-18T02:45:33.656Z,2.20
2023-12-18T02:48:01.733Z,2.20
2023-12-18T02:50:29.885Z,2.20
2023-12-18T02:52:57.969Z,2.20
2023-12-18T02:55:26.049Z,2.10
2023-12-18T02:57:55.481Z,2.10
2023-12-18T03:00:23.653Z,2.10
2023-12-18T03:02:52.089Z,2.00
2023-12-18T03:05:20.178Z,2.00
2023-12-18T03:07:48.338Z,2.00
2023-12-18T03:10:17.271Z,2.00
2023-12-18T03:12:45.273Z,2.00
2023-12-18T03:15:14.986Z,2.00
2023-12-18T03:17:43.411Z,2.00
2023-12-18T03:20:12.627Z,2.00
2023-12-18T03:22:40.796Z,2.00
2023-12-18T03:25:09.545Z,2.00
2023-12-18T03:27:37.614Z,2.00
2023-12-18T03:30:07.085Z,1.90
2023-12-18T03:32:36.605Z,1.90
2023-12-18T03:35:04.869Z,1.90
2023-12-18T03:37:32.928Z,1.90
2023-12-18T03:40:00.994Z,1.90
2023-12-18T03:42:29.032Z,1.90
2023-12-18T03:44:57.077Z,1.80
2023-12-18T03:47:25.055Z,1.80
2023-12-18T03:49:54.535Z,1.80
2023-12-18T03:52:22.615Z,1.80
2023-12-18T03:54:50.682Z,1.80
2023-12-18T03:57:18.996Z,1.70
2023-12-18T03:59:47.022Z,1.70
2023-12-18T04:02:15.009Z,1.70
2023-12-18T04:04:43.259Z,1.70
2023-12-18T04:07:12.679Z,1.70
2023-12-18T04:09:41.444Z,1.70
2023-12-18T04:12:10.157Z,1.70
2023-12-18T04:14:38.292Z,1.70
2023-12-18T04:17:06.259Z,1.70
2023-12-18T04:19:34.584Z,1.70
2023-12-18T04:22:03.117Z,1.70
2023-12-18T04:24:32.579Z,1.70
2023-12-18T04:27:00.669Z,1.70
2023-12-18T04:29:28.795Z,1.60
2023-12-18T04:31:56.742Z,1.60
2023-12-18T04:34:24.836Z,1.60
2023-12-18T04:36:53.792Z,1.60
2023-12-18T04:39:22.078Z,1.60
2023-12-18T04:41:51.685Z,1.60
2023-12-18T04:44:19.770Z,1.50
2023-12-18T04:46:48.202Z,1.50
2023-12-18T04:49:16.337Z,1.50
2023-12-18T04:51:44.429Z,1.50
2023-12-18T04:54:13.303Z,1.40
2023-12-18T04:56:41.290Z,1.40
2023-12-18T04:59:11.577Z,1.30
2023-12-18T05:01:39.715Z,1.30
2023-12-18T05:04:07.805Z,1.30
2023-12-18T05:06:36.061Z,1.30
2023-12-18T05:09:04.302Z,1.30
2023-12-18T05:11:32.478Z,1.40
2023-12-18T05:14:00.391Z,1.40
2023-12-18T05:16:29.659Z,1.40
2023-12-18T05:18:58.247Z,1.40
2023-12-18T05:21:26.415Z,1.40
2023-12-18T05:23:55.424Z,1.40
2023-12-18T05:26:23.540Z,1.40
2023-12-18T05:28:51.520Z,1.40
2023-12-18T05:31:21.528Z,1.40
2023-12-18T05:33:51.100Z,1.40
2023-12-18T05:36:19.149Z,1.40
2023-12-18T05:38:47.237Z,1.40
2023-12-18T05:41:15.227Z,1.40
2023-12-18T05:43:43.309Z,1.40
2023-12-18T05:46:13.374Z,1.40
2023-12-18T05:48:41.475Z,1.40
2023-12-18T05:51:20.709Z,1.40
2023-12-18T05:53:49.059Z,1.30
2023-12-18T05:56:17.755Z,1.30
2023-12-18T05:58:45.779Z,1.30
2023-12-18T06:01:14.335Z,1.30
2023-12-18T06:03:42.621Z,1.30
2023-12-18T06:06:10.803Z,1.20
2023-12-18T06:08:40.213Z,1.20
2023-12-18T06:11:08.315Z,1.20
2023-12-18T06:13:36.749Z,1.10
2023-12-18T06:16:05.363Z,1.00
2023-12-18T06:18:33.470Z,1.00
2023-12-18T06:21:04.625Z,1.10
2023-12-18T06:23:32.641Z,1.10
2023-12-18T06:26:03.535Z,1.00
2023-12-18T06:28:31.773Z,1.10
2023-12-18T06:31:00.215Z,1.10
2023-12-18T06:33:28.698Z,1.10
2023-12-18T06:35:57.092Z,1.10
2023-12-18T06:38:25.049Z,1.10
2023-12-18T06:40:53.138Z,1.10
2023-12-18T06:43:22.506Z,1.10
2023-12-18T06:45:50.655Z,1.10
2023-12-18T06:48:18.909Z,1.10
2023-12-18T06:50:46.955Z,1.10
2023-12-18T06:53:15.217Z,1.10
2023-12-18T06:55:43.254Z,1.10
2023-12-18T06:58:11.606Z,1.10
2023-12-18T07:00:42.059Z,1.10
2023-12-18T07:03:10.490Z,1.10
2023-12-18T07:05:38.959Z,1.10
2023-12-18T07:08:08.183Z,1.00
2023-12-18T07:10:36.144Z,1.00
2023-12-18T07:13:04.272Z,1.00
2023-12-18T07:15:32.396Z,1.00
2023-12-18T07:18:02.284Z,1.00
2023-12-18T07:20:30.380Z,1.00
2023-12-18T07:22:58.524Z,1.00
2023-12-18T07:25:26.758Z,1.00
2023-12-18T07:27:55.057Z,1.00
2023-12-18T07:30:23.204Z,1.00
2023-12-18T07:32:52.101Z,1.00
2023-12-18T07:35:21.467Z,1.00
2023-12-18T07:37:49.524Z,0.90
2023-12-18T07:40:17.661Z,0.90
2023-12-18T07:42:46.005Z,0.80
2023-12-18T07:45:14.314Z,0.90
2023-12-18T07:47:42.492Z,0.80
2023-12-18T07:50:11.181Z,0.80
2023-12-18T07:52:40.991Z,0.80
2023-12-18T07:55:10.185Z,0.80
2023-12-18T07:57:38.304Z,0.80
2023-12-18T08:00:08.482Z,0.80
2023-12-18T08:02:42.613Z,0.80
2023-12-18T08:05:10.899Z,0.80
2023-12-18T08:07:40.240Z,0.80
2023-12-18T08:10:09.253Z,0.80
2023-12-18T08:12:37.604Z,0.80
2023-12-18T08:15:06.625Z,0.90
2023-12-18T08:17:40.057Z,0.80
2023-12-18T08:20:09.287Z,0.90
2023-12-18T08:22:37.227Z,0.90
2023-12-18T08:25:08.346Z,0.90
2023-12-18T08:27:36.391Z,0.90
2023-12-18T08:30:06.265Z,0.90
2023-12-18T08:32:34.747Z,0.90
2023-12-18T08:35:03.345Z,0.90
2023-12-18T08:37:31.419Z,0.90
2023-12-18T08:39:59.433Z,0.90
2023-12-18T08:42:28.977Z,1.00
2023-12-18T08:44:58.445Z,1.00
2023-12-18T08:47:27.964Z,1.00
2023-12-18T08:49:56.004Z,1.10
2023-12-18T08:52:24.062Z,1.10
2023-12-18T08:54:52.185Z,1.10
2023-12-18T08:57:20.702Z,1.10
2023-12-18T08:59:51.398Z,1.20
2023-12-18T09:02:19.747Z,1.20
2023-12-18T09:04:47.937Z,1.20
2023-12-18T09:07:16.219Z,1.30
2023-12-18T09:09:45.110Z,1.30
2023-12-18T09:12:13.611Z,1.30
2023-12-18T09:14:41.719Z,1.40
2023-12-18T09:17:11.420Z,1.40
2023-12-18T09:19:39.628Z,1.40
2023-12-18T09:22:07.766Z,1.50
2023-12-18T09:24:35.829Z,1.50
2023-12-18T09:27:04.770Z,1.50
2023-12-18T09:29:32.708Z,1.60
2023-12-18T09:32:01.659Z,1.60
2023-12-18T09:34:31.295Z,1.60
2023-12-18T09:36:59.492Z,1.60
2023-12-18T09:39:27.498Z,1.70
2023-12-18T09:41:55.526Z,1.70
2023-12-18T09:44:23.596Z,1.70
2023-12-18T09:46:52.886Z,1.70
2023-12-18T09:49:21.637Z,1.80
2023-12-18T09:51:54.898Z,1.80
2023-12-18T09:54:24.104Z,1.80
2023-12-18T09:56:54.003Z,1.90
2023-12-18T09:59:22.047Z,1.90
2023-12-18T10:01:50.890Z,2.00
2023-12-18T10:04:19.037Z,2.00
2023-12-18T10:06:47.128Z,2.10
2023-12-18T10:09:17.614Z,2.10
2023-12-18T10:11:46.649Z,2.10
2023-12-18T10:14:15.050Z,2.20
2023-12-18T10:16:43.242Z,2.20
2023-12-18T10:19:12.445Z,2.20
2023-12-18T10:21:40.620Z,2.20
2023-12-18T10:24:11.147Z,2.30
2023-12-18T10:26:40.936Z,2.30
2023-12-18T10:29:09.895Z,2.30
2023-12-18T10:31:38.395Z,2.40
2023-12-18T10:34:07.243Z,2.40
2023-12-18T10:36:36.769Z,2.40
2023-12-18T10:39:10.869Z,2.50
2023-12-18T10:41:42.240Z,2.50
2023-12-18T10:44:15.405Z,2.50
2023-12-18T10:46:45.219Z,2.60
2023-12-18T10:49:14.579Z,2.60
2023-12-18T10:51:45.003Z,2.70
2023-12-18T10:54:13.778Z,2.70
2023-12-18T10:56:45.110Z,2.80
2023-12-18T10:59:15.241Z,2.80
2023-12-18T11:01:43.802Z,2.80
2023-12-18T11:04:14.146Z,2.90
2023-12-18T11:06:43.492Z,2.90
2023-12-18T11:09:11.861Z,3.00
2023-12-18T11:11:43.415Z,3.10
2023-12-18T11:14:21.193Z,3.20
2023-12-18T11:17:02.732Z,3.30
2023-12-18T11:19:39.845Z,3.50
2023-12-18T11:22:07.925Z,3.70
2023-12-18T11:24:38.182Z,3.90
2023-12-18T11:27:08.717Z,4.00
2023-12-18T11:29:50.317Z,4.10
2023-12-18T11:32:44.280Z,4.30
2023-12-18T11:35:13.082Z,4.50
2023-12-18T11:37:47.934Z,4.60
2023-12-18T11:40:35.423Z,4.70
2023-12-18T11:43:06.757Z,4.90
2023-12-18T11:45:37.454Z,5.10
2023-12-18T11:48:06.979Z,5.30
2023-12-18T11:50:38.283Z,5.40
2023-12-18T11:53:10.331Z,5.50
2023-12-18T11:55:48.342Z,5.60
2023-12-18T11:58:20.929Z,5.70
2023-12-18T12:00:49.805Z,5.80
2023-12-18T12:03:18.419Z,5.90
2023-12-18T12:05:47.978Z,6.00
2023-12-18T12:08:16.030Z,6.00
2023-12-18T12:10:45.701Z,6.10
2023-12-18T12:13:23.021Z,6.10
2023-12-18T12:15:58.549Z,6.10
2023-12-18T12:18:28.016Z,6.10
2023-12-18T12:20:56.771Z,6.20
2023-12-18T12:23:26.574Z,6.40
2023-12-18T12:25:57.454Z,6.60
2023-12-18T12:28:29.653Z,6.60
2023-12-18T12:30:57.982Z,6.70
2023-12-18T12:33:26.173Z,6.80
2023-12-18T12:35:54.747Z,6.90
2023-12-18T12:38:22.748Z,7.00
2023-12-18T12:40:50.932Z,7.00
2023-12-18T12:43:19.087Z,7.10
2023-12-18T12:45:48.653Z,7.20
2023-12-18T12:48:17.892Z,7.30
2023-12-18T12:50:45.913Z,7.40
2023-12-18T12:53:14.500Z,7.60
2023-12-18T12:55:43.942Z,7.60
2023-12-18T12:58:12.923Z,7.70
2023-12-18T13:00:41.304Z,7.70
2023-12-18T13:03:10.873Z,7.60
2023-12-18T13:05:39.179Z,7.70
2023-12-18T13:08:07.331Z,7.70
2023-12-18T13:10:35.315Z,7.80
2023-12-18T13:13:03.368Z,7.90
2023-12-18T13:15:31.672Z,7.90
2023-12-18T13:17:59.994Z,7.80
2023-12-18T13:20:29.982Z,7.80
2023-12-18T13:22:58.439Z,7.90
2023-12-18T13:25:26.732Z,7.80
2023-12-18T13:27:55.316Z,7.80
2023-12-18T13:30:23.909Z,7.80
2023-12-18T13:32:52.237Z,7.70
2023-12-18T13:35:20.585Z,7.60
2023-12-18T13:37:50.682Z,7.70
2023-12-18T13:40:18.865Z,7.60
2023-12-18T13:42:47.877Z,7.70
2023-12-18T13:45:16.118Z,7.90
2023-12-18T13:47:45.484Z,8.00
2023-12-18T13:50:14.253Z,8.20
2023-12-18T13:52:42.322Z,8.20
2023-12-18T13:55:11.862Z,8.30
2023-12-18T13:57:46.412Z,8.40
2023-12-18T14:00:20.283Z,8.50
2023-12-18T14:02:50.420Z,8.50
2023-12-18T14:05:19.844Z,8.40
2023-12-18T14:07:48.295Z,8.50
2023-12-18T14:10:17.988Z,8.50
2023-12-18T14:12:46.300Z,8.40
2023-12-18T14:15:14.917Z,8.40
2023-12-18T14:17:43.337Z,8.30
2023-12-18T14:20:12.792Z,8.30
2023-12-18T14:22:41.522Z,8.20
2023-12-18T14:25:10.542Z,8.20
2023-12-18T14:27:40.054Z,8.10
2023-12-18T14:30:09.600Z,8.00
2023-12-18T14:32:37.885Z,7.90
2023-12-18T14:35:07.182Z,7.90
2023-12-18T14:37:35.374Z,7.80
2023-12-18T14:40:04.164Z,7.70
2023-12-18T14:42:32.305Z,7.70
2023-12-18T14:45:01.947Z,7.60
2023-12-18T14:47:29.968Z,7.60
2023-12-18T14:49:58.193Z,7.50
2023-12-18T14:52:26.303Z,7.50
2023-12-18T14:54:55.836Z,7.50
2023-12-18T14:57:24.005Z,7.40
2023-12-18T14:59:52.046Z,7.40
2023-12-18T15:02:22.343Z,7.40
2023-12-18T15:04:50.718Z,7.30
2023-12-18T15:07:19.068Z,7.30
2023-12-18T15:09:47.538Z,7.20
2023-12-18T15:12:16.672Z,7.20
2023-12-18T15:14:45.543Z,7.20
2023-12-18T15:17:13.591Z,7.10
2023-12-18T15:19:43.552Z,7.10
2023-12-18T15:22:12.243Z,7.00
2023-12-18T15:24:41.232Z,7.00
2023-12-18T15:27:09.974Z,7.00
2023-12-18T15:29:38.359Z,7.00
2023-12-18T15:32:08.161Z,7.00
2023-12-18T15:34:36.576Z,6.90
2023-12-18T15:37:06.777Z,6.80
2023-12-18T15:39:34.920Z,6.70
2023-12-18T15:42:02.896Z,6.70
2023-12-18T15:44:31.114Z,6.70
2023-12-18T15:46:59.096Z,6.60
2023-12-18T15:49:28.102Z,6.60
2023-12-18T15:51:56.953Z,6.60
2023-12-18T15:54:26.422Z,6.50
2023-12-18T15:56:54.416Z,6.50
2023-12-18T15:59:23.106Z,6.40
2023-12-18T16:01:51.102Z,6.30
2023-12-18T16:04:19.243Z,6.20
2023-12-18T16:06:47.401Z,6.20
2023-12-18T16:09:15.519Z,6.10
2023-12-18T16:11:44.964Z,6.00
2023-12-18T16:14:12.975Z,6.00
2023-12-18T16:16:40.976Z,5.90
2023-12-18T16:19:09.043Z,5.80
2023-12-18T16:21:37.598Z,5.80
2023-12-18T16:24:06.446Z,5.70
2023-12-18T16:26:36.444Z,5.60
2023-12-18T16:29:08.369Z,5.60
2023-12-18T16:31:36.600Z,5.60
2023-12-18T16:34:04.889Z,5.50
2023-12-18T16:36:33.212Z,5.40
2023-12-18T16:39:01.618Z,5.40
2023-12-18T16:41:32.710Z,5.30
2023-12-18T16:44:01.541Z,5.30
2023-12-18T16:46:40.064Z,5.20
2023-12-18T16:49:13.500Z,5.20
2023-12-18T16:51:41.993Z,5.10
2023-12-18T16:54:10.144Z,5.10
2023-12-18T16:56:38.388Z,5.10
2023-12-18T16:59:06.468Z,5.10
2023-12-18T17:01:35.984Z,5.10
2023-12-18T17:04:04.461Z,5.10
2023-12-18T17:06:32.617Z,5.00
2023-12-18T17:09:00.551Z,5.00
2023-12-18T17:11:28.611Z,4.90
2023-12-18T17:13:56.601Z,4.90
2023-12-18T17:16:25.052Z,4.80
2023-12-18T17:18:54.444Z,4.80
2023-12-18T17:21:22.583Z,4.70
2023-12-18T17:23:50.883Z,4.60
2023-12-18T17:26:18.894Z,4.50
2023-12-18T17:28:46.986Z,4.40
2023-12-18T17:31:15.071Z,4.40
2023-12-18T17:33:43.321Z,4.40
2023-12-18T17:36:12.853Z,4.30
2023-12-18T17:38:41.076Z,4.30
2023-12-18T17:41:09.031Z,4.20
2023-12-18T17:43:36.988Z,4.20
2023-12-18T17:46:05.300Z,4.20
2023-12-18T17:48:33.458Z,4.00
2023-12-18T17:51:01.904Z,4.10
2023-12-18T17:53:31.388Z,4.00
2023-12-18T17:55:59.690Z,4.00
2023-12-18T17:58:27.757Z,3.90
2023-12-18T18:00:56.125Z,3.90
2023-12-18T18:03:24.296Z,3.90
2023-12-18T18:05:52.411Z,3.90
2023-12-18T18:08:22.095Z,3.90
2023-12-18T18:10:51.566Z,3.90
2023-12-18T18:13:19.877Z,3.80
2023-12-18T18:15:47.986Z,3.90
2023-12-18T18:18:16.126Z,3.80
2023-12-18T18:20:45.093Z,3.80
2023-12-18T18:23:13.080Z,3.90
2023-12-18T18:25:42.514Z,3.90
2023-12-18T18:28:12.624Z,3.70
2023-12-18T18:30:42.792Z,3.70
2023-12-18T18:33:12.280Z,3.60
2023-12-18T18:35:40.604Z,3.60
2023-12-18T18:38:08.797Z,3.50
2023-12-18T18:40:36.834Z,3.50
2023-12-18T18:43:05.110Z,3.50
2023-12-18T18:45:36.801Z,3.50
2023-12-18T18:48:07.279Z,3.50
2023-12-18T18:50:36.299Z,3.40
2023-12-18T18:53:06.710Z,3.40
2023-12-18T18:55:35.001Z,3.40
2023-12-18T18:58:03.389Z,3.30
2023-12-18T19:00:32.680Z,3.30
2023-12-18T19:03:05.430Z,3.30
2023-12-18T19:05:38.936Z,3.20
2023-12-18T19:08:07.127Z,3.20
2023-12-18T19:10:35.159Z,3.20
2023-12-18T19:13:03.313Z,3.10
2023-12-18T19:15:31.460Z,3.10
2023-12-18T19:18:00.964Z,3.10
2023-12-18T19:20:29.883Z,3.10
2023-12-18T19:22:57.952Z,3.10
2023-12-18T19:25:25.888Z,3.10
2023-12-18T19:27:54.013Z,3.20
2023-12-18T19:30:22.161Z,3.20
2023-12-18T19:32:50.339Z,3.20
2023-12-18T19:35:20.044Z,3.20
2023-12-18T19:37:49.081Z,3.20
2023-12-18T19:40:17.215Z,3.20
2023-12-18T19:42:45.231Z,3.20
2023-12-18T19:45:16.866Z,3.20
2023-12-18T19:47:45.695Z,3.20
2023-12-18T19:50:14.615Z,3.10
2023-12-18T19:52:45.333Z,3.00
2023-12-18T19:55:14.001Z,3.00
2023-12-18T19:57:42.469Z,3.00
2023-12-18T20:00:13.669Z,3.10
2023-12-18T20:02:41.986Z,3.00
2023-12-18T20:05:10.340Z,3.00
2023-12-18T20:07:38.795Z,3.00
2023-12-18T20:10:11.768Z,3.00
2023-12-18T20:12:39.988Z,3.00
2023-12-18T20:15:10.294Z,3.00
2023-12-18T20:17:38.415Z,2.90
2023-12-18T20:20:06.940Z,2.80
2023-12-18T20:22:35.030Z,2.80
2023-12-18T20:25:03.238Z,2.70
2023-12-18T20:27:32.767Z,2.70
2023-12-18T20:30:00.916Z,2.70
2023-12-18T20:32:29.041Z,2.60
2023-12-18T20:34:57.086Z,2.50
2023-12-18T20:37:25.912Z,2.50
2023-12-18T20:39:53.966Z,2.50
2023-12-18T20:42:22.045Z,2.40
2023-12-18T20:44:51.663Z,2.40
2023-12-18T20:47:20.082Z,2.30
2023-12-18T20:49:48.803Z,2.30
2023-12-18T20:52:17.002Z,2.30
2023-12-18T20:54:45.032Z,2.30
2023-12-18T20:57:15.173Z,2.30
2023-12-18T20:59:43.666Z,2.30
2023-12-18T21:02:13.863Z,2.30
2023-12-18T21:04:41.996Z,2.30
2023-12-18T21:07:09.983Z,2.30
2023-12-18T21:09:38.217Z,2.30
2023-12-18T21:12:07.150Z,2.20
2023-12-18T21:14:35.952Z,2.20
2023-12-18T21:17:04.825Z,2.20
2023-12-18T21:19:35.502Z,2.30
2023-12-18T21:22:05.140Z,2.20
2023-12-18T21:24:33.639Z,2.30
2023-12-18T21:27:02.006Z,2.30
2023-12-18T21:29:30.355Z,2.30
2023-12-18T21:31:58.603Z,2.30
2023-12-18T21:34:26.771Z,2.30
2023-12-18T21:36:56.467Z,2.30
2023-12-18T21:39:24.535Z,2.30
2023-12-18T21:41:52.618Z,2.30
2023-12-18T21:44:20.575Z,2.30
2023-12-18T21:46:48.644Z,2.30
2023-12-18T21:49:16.718Z,2.30
2023-12-18T21:51:44.850Z,2.20
2023-12-18T21:54:14.168Z,2.20
2023-12-18T21:56:42.189Z,2.20
2023-12-18T21:59:10.176Z,2.20
2023-12-18T22:01:39.323Z,2.10
2023-12-18T22:04:08.104Z,2.10
2023-12-18T22:06:37.353Z,2.10
2023-12-18T22:09:05.627Z,2.10
2023-12-18T22:11:34.949Z,2.10
2023-12-18T22:14:03.001Z,2.10
2023-12-18T22:16:31.022Z,2.10
2023-12-18T22:18:59.081Z,2.10
2023-12-18T22:21:27.433Z,2.10
2023-12-18T22:23:55.639Z,2.10
2023-12-18T22:26:23.653Z,2.00
2023-12-18T22:28:53.244Z,2.10
2023-12-18T22:31:21.417Z,2.10
2023-12-18T22:33:49.747Z,2.00
2023-12-18T22:36:18.131Z,2.00
2023-12-18T22:38:52.378Z,2.00
2023-12-18T22:41:23.696Z,1.90
2023-12-18T22:43:53.248Z,1.80
2023-12-18T22:46:21.210Z,1.70
2023-12-18T22:48:49.368Z,1.60
2023-12-18T22:51:17.497Z,1.60
2023-12-18T22:53:45.505Z,1.60
2023-12-18T22:56:13.646Z,1.60
2023-12-18T22:58:41.574Z,1.60
2023-12-18T23:01:10.975Z,1.70
2023-12-18T23:03:39.058Z,1.70
2023-12-18T23:06:07.234Z,1.70
2023-12-18T23:08:35.212Z,1.80
2023-12-18T23:11:03.327Z,1.80
2023-12-18T23:13:31.615Z,1.80
2023-12-18T23:15:59.702Z,1.90
2023-12-18T23:18:29.257Z,1.90
2023-12-18T23:20:57.385Z,1.90
2023-12-18T23:23:25.446Z,2.00
2023-12-18T23:25:53.497Z,1.90
2023-12-18T23:28:21.639Z,2.00
2023-12-18T23:30:49.767Z,1.90
2023-12-18T23:33:25.289Z,2.00
2023-12-18T23:35:57.637Z,2.00
2023-12-18T23:38:25.659Z,2.00
2023-12-18T23:40:53.655Z,2.00
2023-12-18T23:43:21.702Z,2.00
2023-12-18T23:45:50.188Z,1.90
2023-12-18T23:48:18.479Z,1.80
2023-12-18T23:50:46.641Z,1.80
2023-12-18T23:53:16.042Z,1.80
2023-12-18T23:55:44.138Z,1.80
2023-12-18T23:58:12.309Z,1.80
